createdAt,value
2022-09-04T00:01:45.344Z,20.30
2022-09-04T00:04:23.952Z,20.12
2022-09-04T00:06:59.969Z,20.17
2022-09-04T00:09:37.057Z,20.16
2022-09-04T00:12:08.882Z,20.18
2022-09-04T00:14:44.433Z,20.20
2022-09-04T00:17:19.155Z,20.16
2022-09-04T00:19:51.263Z,20.20
2022-09-04T00:22:29.738Z,20.17
2022-09-04T00:25:21.755Z,20.07
2022-09-04T00:27:59.699Z,19.95
2022-09-04T00:30:28.262Z,20.15
2022-09-04T00:33:02.281Z,20.13
2022-09-04T00:43:08.296Z,20.05
2022-09-04T00:46:06.977Z,20.16
2022-09-04T00:49:18.460Z,20.07
2022-09-04T00:51:56.217Z,20.04
2022-09-04T00:54:49.110Z,19.93
2022-09-04T00:57:47.158Z,19.78
2022-09-04T01:00:18.630Z,19.61
2022-09-04T01:03:21.999Z,19.54
2022-09-04T01:06:35.521Z,19.47
2022-09-04T01:09:24.811Z,19.50
2022-09-04T01:12:02.774Z,19.50
2022-09-04T01:14:41.519Z,19.47
2022-09-04T01:17:19.600Z,19.38
2022-09-04T01:19:57.021Z,19.27
2022-09-04T01:22:53.070Z,19.24
2022-09-04T01:25:53.427Z,19.21
2022-09-04T01:28:29.462Z,19.23
2022-09-04T01:31:05.513Z,19.14
2022-09-04T01:33:43.519Z,19.01
2022-09-04T01:36:20.039Z,18.83
2022-09-04T01:38:53.831Z,18.81
2022-09-04T01:41:28.775Z,18.86
2022-09-04T01:43:57.060Z,18.82
2022-09-04T01:46:40.861Z,18.76
2022-09-04T01:49:17.038Z,18.69
2022-09-04T01:51:55.647Z,18.62
2022-09-04T01:54:43.489Z,18.55
2022-09-04T01:57:24.031Z,18.58
2022-09-04T02:00:06.744Z,18.58
2022-09-04T02:02:47.633Z,18.58
2022-09-04T02:05:28.613Z,18.66
2022-09-04T02:08:12.695Z,18.79
2022-09-04T02:10:52.045Z,18.82
2022-09-04T02:13:30.395Z,18.93
2022-09-04T02:16:14.641Z,19.02
2022-09-04T02:18:49.982Z,18.96
2022-09-04T02:21:26.972Z,19.03
2022-09-04T02:24:08.237Z,19.01
2022-09-04T02:26:43.058Z,19.04
2022-09-04T02:29:21.945Z,19.00
2022-09-04T02:31:57.160Z,18.98
2022-09-04T02:34:36.278Z,19.02
2022-09-04T02:37:13.112Z,18.94
2022-09-04T02:39:52.664Z,18.85
2022-09-04T02:42:28.172Z,18.75
2022-09-04T02:45:12.313Z,18.75
2022-09-04T02:47:48.241Z,18.66
2022-09-04T02:50:30.414Z,18.56
2022-09-04T02:53:10.275Z,18.51
2022-09-04T02:55:58.494Z,18.46
2022-09-04T02:58:40.581Z,18.50
2022-09-04T03:01:22.671Z,18.56
2022-09-04T03:04:00.226Z,18.49
2022-09-04T03:06:43.610Z,18.53
2022-09-04T03:09:16.690Z,18.48
2022-09-04T03:11:50.474Z,18.46
2022-09-04T03:14:26.970Z,18.59
2022-09-04T03:17:03.598Z,18.43
2022-09-04T03:19:41.800Z,18.36
2022-09-04T03:22:17.279Z,18.41
2022-09-04T03:25:04.209Z,18.31
2022-09-04T03:27:34.248Z,18.25
2022-09-04T03:30:07.325Z,18.28
2022-09-04T03:32:46.362Z,18.24
2022-09-04T03:35:22.658Z,18.18
2022-09-04T03:38:03.732Z,18.15
2022-09-04T03:40:44.648Z,18.13
2022-09-04T03:43:43.741Z,18.10
2022-09-04T03:46:22.722Z,18.06
2022-09-04T03:49:08.659Z,17.96
2022-09-04T03:51:46.939Z,17.94
2022-09-04T03:54:36.285Z,17.98
2022-09-04T03:57:16.983Z,18.04
2022-09-04T04:00:05.054Z,18.20
2022-09-04T04:02:44.840Z,18.30
2022-09-04T04:05:27.880Z,18.34
2022-09-04T04:08:15.530Z,18.48
2022-09-04T04:10:58.166Z,18.37
2022-09-04T04:13:42.749Z,18.46
2022-09-04T04:16:25.999Z,18.64
2022-09-04T04:19:21.951Z,18.80
2022-09-04T04:22:08.572Z,18.77
2022-09-04T04:25:02.504Z,18.76
2022-09-04T04:27:47.174Z,18.92
2022-09-04T04:30:18.563Z,18.91
2022-09-04T04:33:15.803Z,18.85
2022-09-04T04:35:54.901Z,18.91
2022-09-04T04:38:40.576Z,19.00
2022-09-04T04:41:29.241Z,18.94
2022-09-04T04:44:12.281Z,18.90
2022-09-04T04:46:54.930Z,19.03
2022-09-04T04:49:40.311Z,19.28
2022-09-04T04:52:30.365Z,19.20
2022-09-04T04:55:14.748Z,19.07
2022-09-04T04:57:54.988Z,19.00
2022-09-04T05:00:29.273Z,18.77
2022-09-04T05:03:05.914Z,18.46
2022-09-04T05:06:01.210Z,18.38
2022-09-04T05:08:38.918Z,18.56
2022-09-04T05:11:18.669Z,18.39
2022-09-04T05:13:57.337Z,18.82
2022-09-04T05:16:34.626Z,18.81
2022-09-04T05:19:12.419Z,19.03
2022-09-04T05:21:51.017Z,19.03
2022-09-04T05:24:26.689Z,19.01
2022-09-04T05:27:03.898Z,19.14
2022-09-04T05:29:44.848Z,19.49
2022-09-04T05:32:20.475Z,19.69
2022-09-04T05:35:04.842Z,19.68
2022-09-04T05:37:43.984Z,19.68
2022-09-04T05:40:24.757Z,19.65
2022-09-04T05:43:05.648Z,19.71
2022-09-04T05:45:49.397Z,19.53
2022-09-04T05:48:23.963Z,19.53
2022-09-04T05:51:02.212Z,19.74
2022-09-04T05:54:00.856Z,19.70
2022-09-04T05:56:46.964Z,19.80
2022-09-04T05:59:42.507Z,19.81
2022-09-04T06:02:42.241Z,19.90
2022-09-04T06:05:21.411Z,19.83
2022-09-04T06:08:00.173Z,20.02
2022-09-04T06:10:36.369Z,20.01
2022-09-04T06:16:09.350Z,20.20
2022-09-04T06:18:58.851Z,20.30
2022-09-04T06:21:59.850Z,20.43
2022-09-04T06:24:56.686Z,20.58
2022-09-04T06:27:39.306Z,20.40
2022-09-04T06:30:10.375Z,20.29
2022-09-04T06:33:28.847Z,20.44
2022-09-04T06:36:13.773Z,20.10
2022-09-04T06:38:58.637Z,20.11
2022-09-04T06:41:48.945Z,20.27
2022-09-04T06:44:25.276Z,20.15
2022-09-04T06:47:02.013Z,20.17
2022-09-04T06:49:38.888Z,20.01
2022-09-04T06:52:22.429Z,20.10
2022-09-04T06:54:59.578Z,20.28
2022-09-04T06:57:53.327Z,20.70
2022-09-04T07:00:21.896Z,20.57
2022-09-04T07:03:10.156Z,20.42
2022-09-04T07:05:47.189Z,20.42
2022-09-04T07:08:30.234Z,20.28
2022-09-04T07:11:09.124Z,20.36
2022-09-04T07:14:22.188Z,20.91
2022-09-04T07:17:04.022Z,21.35
2022-09-04T07:19:54.237Z,21.55
2022-09-04T07:23:04.116Z,21.74
2022-09-04T07:25:49.408Z,22.00
2022-09-04T07:28:36.931Z,22.07
2022-09-04T07:31:12.941Z,21.89
2022-09-04T07:33:50.797Z,21.99
2022-09-04T07:36:29.680Z,22.14
2022-09-04T07:39:08.532Z,22.14
2022-09-04T07:41:47.767Z,21.87
2022-09-04T07:44:20.953Z,21.55
2022-09-04T07:46:57.724Z,21.41
2022-09-04T07:49:36.103Z,21.57
2022-09-04T07:52:13.380Z,21.86
2022-09-04T07:55:05.616Z,22.09
2022-09-04T07:57:53.758Z,22.48
2022-09-04T08:00:22.890Z,22.98
2022-09-04T08:03:17.783Z,22.99
2022-09-04T08:05:50.487Z,23.50
2022-09-04T08:08:39.842Z,23.63
2022-09-04T08:11:39.665Z,23.33
2022-09-04T08:14:24.644Z,23.64
2022-09-04T08:17:05.577Z,23.69
2022-09-04T08:19:48.932Z,23.58
2022-09-04T08:22:30.819Z,23.53
2022-09-04T08:25:17.097Z,23.53
2022-09-04T08:28:00.915Z,23.49
2022-09-04T08:30:37.005Z,23.62
2022-09-04T08:33:35.106Z,23.71
2022-09-04T08:36:11.753Z,23.80
2022-09-04T08:38:55.618Z,23.87
2022-09-04T08:42:00.372Z,23.81
2022-09-04T08:45:09.734Z,23.85
2022-09-04T08:48:13.305Z,23.88
2022-09-04T08:51:29.700Z,24.16
2022-09-04T08:54:40.160Z,24.43
2022-09-04T08:57:29.876Z,24.53
2022-09-04T09:00:10.104Z,24.71
2022-09-04T09:03:09.669Z,24.96
2022-09-04T09:06:21.053Z,24.82
2022-09-04T09:09:24.801Z,25.23
2022-09-04T09:12:40.814Z,25.32
2022-09-04T09:15:39.354Z,25.29
2022-09-04T09:18:31.504Z,25.11
2022-09-04T09:21:08.713Z,25.02
2022-09-04T09:23:46.117Z,25.02
2022-09-04T09:26:28.296Z,25.40
2022-09-04T09:29:26.666Z,25.58
2022-09-04T09:32:35.936Z,25.60
2022-09-04T09:35:39.598Z,25.68
2022-09-04T09:38:50.005Z,25.47
2022-09-04T09:41:47.009Z,25.43
2022-09-04T09:44:42.626Z,25.68
2022-09-04T09:47:47.065Z,25.38
2022-09-04T09:50:53.931Z,25.16
2022-09-04T09:53:48.527Z,24.82
2022-09-04T09:56:53.822Z,24.59
2022-09-04T09:59:45.087Z,24.58
2022-09-04T10:02:38.352Z,24.53
2022-09-04T10:05:38.140Z,24.54
2022-09-04T10:08:39.043Z,24.80
2022-09-04T10:11:29.254Z,24.88
2022-09-04T10:14:33.129Z,25.09
2022-09-04T10:17:30.521Z,25.26
2022-09-04T10:20:41.268Z,25.63
2022-09-04T10:23:39.659Z,25.68
2022-09-04T10:26:52.051Z,25.78
2022-09-04T10:29:34.031Z,25.84
2022-09-04T10:32:38.271Z,25.96
2022-09-04T10:35:21.046Z,26.29
2022-09-04T10:38:27.736Z,26.45
2022-09-04T10:41:27.306Z,26.55
2022-09-04T10:44:30.677Z,26.80
2022-09-04T10:47:11.577Z,26.82
2022-09-04T10:50:03.158Z,26.84
2022-09-04T10:53:02.919Z,26.76
2022-09-04T10:56:03.667Z,26.46
2022-09-04T10:58:42.598Z,26.44
2022-09-04T11:05:21.291Z,26.31
2022-09-04T11:08:26.383Z,26.29
2022-09-04T11:11:09.301Z,25.99
2022-09-04T11:14:01.106Z,25.89
2022-09-04T11:16:48.666Z,25.80
2022-09-04T11:19:56.718Z,25.47
2022-09-04T11:23:15.725Z,25.62
2022-09-04T11:26:22.907Z,25.98
2022-09-04T11:29:12.555Z,25.76
2022-09-04T11:32:07.064Z,25.93
2022-09-04T11:35:09.286Z,25.82
2022-09-04T11:38:08.856Z,25.76
2022-09-04T11:41:33.419Z,25.79
2022-09-04T11:44:29.762Z,25.76
2022-09-04T11:47:33.273Z,25.84
2022-09-04T11:50:20.971Z,26.10
2022-09-04T11:53:14.569Z,26.03
2022-09-04T11:55:58.748Z,26.07
2022-09-04T11:58:50.918Z,25.98
2022-09-04T12:01:37.178Z,25.98
2022-09-04T12:04:25.943Z,26.02
2022-09-04T12:07:14.365Z,25.79
2022-09-04T12:09:59.581Z,26.10
2022-09-04T12:12:57.359Z,26.33
2022-09-04T12:15:56.243Z,26.68
2022-09-04T12:19:13.825Z,26.93
2022-09-04T12:22:13.365Z,27.23
2022-09-04T12:25:23.715Z,27.47
2022-09-04T12:28:25.020Z,27.41
2022-09-04T12:31:08.696Z,27.32
2022-09-04T12:34:14.327Z,26.51
2022-09-04T12:37:19.870Z,26.20
2022-09-04T12:40:16.596Z,26.00
2022-09-04T12:42:57.460Z,25.83
2022-09-04T12:45:36.596Z,26.00
2022-09-04T12:48:13.512Z,26.21
2022-09-04T12:50:53.350Z,25.99
2022-09-04T12:53:59.693Z,26.16
2022-09-04T12:56:42.282Z,26.49
2022-09-04T12:59:25.626Z,26.65
2022-09-04T13:02:04.607Z,26.76
2022-09-04T13:04:40.220Z,26.92
2022-09-04T13:07:24.965Z,27.21
2022-09-04T13:10:01.860Z,27.22
2022-09-04T13:12:39.411Z,27.18
2022-09-04T13:15:32.915Z,26.96
2022-09-04T13:18:27.143Z,26.61
2022-09-04T13:21:06.674Z,26.40
2022-09-04T13:23:53.240Z,26.02
2022-09-04T13:26:35.121Z,26.07
2022-09-04T13:29:17.009Z,26.20
2022-09-04T13:32:01.974Z,26.22
2022-09-04T13:34:43.646Z,26.35
2022-09-04T13:37:23.949Z,26.46
2022-09-04T13:40:19.926Z,26.08
2022-09-04T13:43:15.948Z,26.09
2022-09-04T13:45:48.778Z,26.26
2022-09-04T13:48:24.594Z,26.34
2022-09-04T13:50:55.790Z,26.37
2022-09-04T13:53:31.058Z,26.44
2022-09-04T13:56:09.887Z,26.17
2022-09-04T13:58:45.547Z,26.11
2022-09-04T14:01:21.859Z,26.07
2022-09-04T14:03:54.009Z,26.10
2022-09-04T14:06:25.282Z,26.26
2022-09-04T14:09:04.803Z,26.23
2022-09-04T14:12:03.318Z,26.37
2022-09-04T14:14:48.687Z,26.34
2022-09-04T14:17:26.865Z,26.48
2022-09-04T14:20:04.413Z,26.77
2022-09-04T14:22:45.233Z,26.99
2022-09-04T14:25:20.804Z,27.08
2022-09-04T14:28:00.186Z,26.82
2022-09-04T14:30:29.634Z,26.41
2022-09-04T14:33:19.444Z,26.40
2022-09-04T14:36:00.054Z,26.52
2022-09-04T14:38:54.147Z,26.51
2022-09-04T14:41:35.828Z,26.44
2022-09-04T14:44:22.511Z,26.48
2022-09-04T14:47:02.150Z,26.17
2022-09-04T14:49:32.071Z,26.06
2022-09-04T14:52:11.874Z,26.10
2022-09-04T14:54:46.693Z,26.23
2022-09-04T14:57:21.290Z,26.37
2022-09-04T15:00:03.995Z,26.33
2022-09-04T15:02:37.875Z,26.07
2022-09-04T15:05:15.876Z,26.16
2022-09-04T15:07:54.713Z,26.26
2022-09-04T15:10:29.200Z,26.37
2022-09-04T15:13:35.604Z,26.12
2022-09-04T15:16:18.444Z,26.12
2022-09-04T15:18:55.508Z,26.38
2022-09-04T15:21:31.051Z,26.34
2022-09-04T15:24:11.333Z,26.06
2022-09-04T15:26:46.781Z,25.63
2022-09-04T15:29:20.485Z,25.59
2022-09-04T15:32:00.696Z,25.49
2022-09-04T15:34:31.072Z,25.55
2022-09-04T15:37:12.750Z,25.67
2022-09-04T15:39:50.677Z,25.63
2022-09-04T15:42:37.289Z,25.58
2022-09-04T15:45:12.844Z,25.54
2022-09-04T15:47:58.830Z,25.60
2022-09-04T15:50:29.767Z,25.72
2022-09-04T15:53:12.942Z,25.78
2022-09-04T15:55:47.027Z,25.73
2022-09-04T15:58:19.707Z,25.25
2022-09-04T16:01:12.358Z,25.03
2022-09-04T16:04:01.483Z,24.87
2022-09-04T16:06:32.432Z,24.88
2022-09-04T16:09:05.332Z,24.64
2022-09-04T16:11:38.007Z,24.59
2022-09-04T16:14:10.114Z,24.51
2022-09-04T16:16:45.488Z,24.51
2022-09-04T16:19:25.880Z,24.38
2022-09-04T16:22:07.483Z,24.40
2022-09-04T16:24:45.665Z,24.29
2022-09-04T16:27:17.206Z,24.27
2022-09-04T16:29:51.209Z,24.24
2022-09-04T16:32:25.937Z,24.20
2022-09-04T16:35:02.233Z,24.14
2022-09-04T16:37:37.695Z,24.19
2022-09-04T16:40:15.792Z,24.17
2022-09-04T16:42:51.893Z,24.22
2022-09-04T16:45:23.868Z,24.08
2022-09-04T16:47:56.768Z,23.97
2022-09-04T16:50:37.901Z,23.75
2022-09-04T16:53:14.811Z,23.76
2022-09-04T16:56:00.099Z,23.67
2022-09-04T16:58:40.515Z,23.57
2022-09-04T17:01:16.906Z,23.59
2022-09-04T17:04:13.329Z,23.55
2022-09-04T17:07:02.548Z,23.46
2022-09-04T17:09:44.447Z,23.37
2022-09-04T17:12:28.825Z,23.33
2022-09-04T17:15:06.972Z,23.27
2022-09-04T17:17:41.194Z,23.25
2022-09-04T17:20:12.094Z,23.13
2022-09-04T17:28:57.133Z,23.12
2022-09-04T17:28:57.575Z,23.03
2022-09-04T17:29:15.039Z,22.85
2022-09-04T17:31:52.240Z,22.87
2022-09-04T17:40:34.874Z,22.98
2022-09-04T17:40:56.731Z,22.99
2022-09-04T17:41:34.749Z,22.96
2022-09-04T17:43:31.050Z,22.84
2022-09-04T17:46:15.897Z,22.80
2022-09-04T17:48:46.259Z,22.73
2022-09-04T17:51:19.179Z,22.65
2022-09-04T17:53:52.113Z,22.58
2022-09-04T17:56:27.978Z,22.57
2022-09-04T17:59:06.882Z,22.46
2022-09-04T18:01:43.203Z,22.40
2022-09-04T18:04:32.714Z,22.38
2022-09-04T18:07:33.545Z,22.35
2022-09-04T18:10:08.404Z,22.33
2022-09-04T18:12:44.482Z,22.30
2022-09-04T18:15:32.234Z,22.25
2022-09-04T18:18:12.015Z,22.18
2022-09-04T18:20:46.201Z,22.19
2022-09-04T18:23:51.336Z,22.14
2022-09-04T18:26:27.876Z,22.16
2022-09-04T18:32:55.697Z,22.16
2022-09-04T18:37:09.677Z,22.05
2022-09-04T18:37:18.978Z,21.95
2022-09-04T18:38:19.894Z,21.95
2022-09-04T18:44:31.892Z,21.92
2022-09-04T18:50:28.383Z,21.90
2022-09-04T18:50:33.209Z,21.91
2022-09-04T18:50:51.994Z,21.94
2022-09-04T18:52:21.153Z,21.88
2022-09-04T18:54:55.730Z,21.93
2022-09-04T18:57:31.902Z,21.89
2022-09-04T19:00:09.152Z,21.87
2022-09-04T19:02:51.433Z,21.87
2022-09-04T19:05:22.401Z,21.73
2022-09-04T19:07:57.647Z,21.78
2022-09-04T19:10:29.091Z,21.73
2022-09-04T19:13:04.205Z,21.60
2022-09-04T19:15:49.396Z,21.49
2022-09-04T19:18:30.578Z,21.40
2022-09-04T19:21:24.710Z,21.32
2022-09-04T19:23:58.914Z,21.22
2022-09-04T19:26:37.185Z,21.24
2022-09-04T19:29:14.529Z,21.19
2022-09-04T19:31:51.221Z,21.16
2022-09-04T19:34:28.462Z,21.11
2022-09-04T19:37:19.076Z,21.01
2022-09-04T19:46:04.112Z,20.88
2022-09-04T19:46:05.050Z,20.79
2022-09-04T19:46:11.592Z,20.81
2022-09-04T19:49:14.631Z,20.78
2022-09-04T19:53:32.177Z,20.72
2022-09-04T19:54:35.825Z,20.75
2022-09-04T19:57:32.566Z,20.59
2022-09-04T20:00:33.678Z,20.56
2022-09-04T20:03:00.214Z,20.50
2022-09-04T20:05:31.399Z,20.43
2022-09-04T20:08:08.576Z,20.30
2022-09-04T20:10:45.357Z,20.28
2022-09-04T20:13:26.056Z,20.27
2022-09-04T20:16:01.766Z,20.25
2022-09-04T20:18:39.411Z,20.22
2022-09-04T20:21:18.132Z,20.19
2022-09-04T20:23:56.605Z,20.19
2022-09-04T20:26:30.450Z,20.13
2022-09-04T20:29:11.805Z,20.04
2022-09-04T20:31:56.236Z,20.00
2022-09-04T20:34:38.924Z,19.99
2022-09-04T20:37:26.260Z,20.00
2022-09-04T20:40:05.375Z,20.00
2022-09-04T20:42:40.881Z,20.01
2022-09-04T20:48:12.573Z,20.03
2022-09-04T20:52:55.268Z,19.87
2022-09-04T20:52:56.254Z,19.95
2022-09-04T20:54:30.473Z,19.82
2022-09-04T20:59:07.576Z,19.80
2022-09-04T21:03:17.499Z,19.66
2022-09-04T21:03:21.234Z,19.74
2022-09-04T21:06:22.809Z,19.61
2022-09-04T21:09:00.822Z,19.64
2022-09-04T21:11:39.697Z,19.65
2022-09-04T21:14:16.858Z,19.70
2022-09-04T21:17:35.041Z,19.68
2022-09-04T21:20:38.952Z,19.67
2022-09-04T21:24:12.462Z,19.65
2022-09-04T21:27:06.143Z,19.62
2022-09-04T21:29:59.637Z,19.59
2022-09-04T21:32:44.904Z,19.54
2022-09-04T21:35:21.319Z,19.53
2022-09-04T21:38:05.477Z,19.52
2022-09-04T21:41:04.712Z,19.56
2022-09-04T21:44:12.400Z,19.56
2022-09-04T21:46:57.784Z,19.51
2022-09-04T21:49:48.063Z,19.48
2022-09-04T21:52:35.160Z,19.57
2022-09-04T22:01:10.229Z,19.50
2022-09-04T22:02:32.138Z,19.52
2022-09-04T22:02:40.458Z,19.46
2022-09-04T22:04:38.607Z,19.41
2022-09-04T22:11:51.636Z,19.45
2022-09-04T22:13:27.619Z,19.48
2022-09-04T22:13:48.168Z,19.41
2022-09-04T22:16:29.576Z,19.47
2022-09-04T22:19:18.153Z,19.44
2022-09-04T22:22:03.442Z,19.42
2022-09-04T22:25:07.723Z,19.33
2022-09-04T22:28:25.856Z,19.47
2022-09-04T22:31:44.526Z,19.34
2022-09-04T22:34:53.507Z,19.33
2022-09-04T22:37:51.020Z,19.32
2022-09-04T22:40:36.367Z,19.34
2022-09-04T22:43:24.619Z,19.28
2022-09-04T22:46:38.629Z,19.36
2022-09-04T22:49:36.189Z,19.29
2022-09-04T22:52:32.178Z,19.24
2022-09-04T22:55:40.499Z,19.24
2022-09-04T22:59:26.222Z,19.28
2022-09-04T23:02:14.516Z,19.23
2022-09-04T23:05:00.569Z,19.30
2022-09-04T23:12:59.954Z,19.21
2022-09-04T23:13:57.990Z,19.27
2022-09-04T23:14:18.178Z,19.31
2022-09-04T23:17:11.230Z,19.19
2022-09-04T23:26:36.876Z,19.06
2022-09-04T23:26:46.042Z,19.14
2022-09-04T23:26:59.636Z,19.17
2022-09-04T23:30:11.766Z,19.01
2022-09-04T23:33:25.038Z,18.95
2022-09-04T23:36:29.682Z,19.00
2022-09-04T23:39:34.686Z,18.98
2022-09-04T23:42:17.603Z,18.94
2022-09-04T23:45:22.925Z,18.99
2022-09-04T23:48:21.617Z,18.96
2022-09-04T23:50:56.701Z,18.91
2022-09-04T23:53:36.092Z,18.90
2022-09-04T23:56:17.709Z,18.88
2022-09-04T23:59:26.598Z,18.87
